sensor_id;sensor_type;location;lat;lon;timestamp;P1;P2;P0
31163;PMS5003;17796;49.296;-117.656;2023-05-19T00:12:52;66;53;
31163;PMS5003;17796;49.296;-117.656;2023-05-19T00:27:56;51;45;
31163;PMS5003;17796;49.296;-117.656;2023-05-19T00:43:00;49;42;
31163;PMS5003;17796;49.296;-117.656;2023-05-19T00:58:04;56;48;
31163;PMS5003;17796;49.296;-117.656;2023-05-19T01:13:08;56;53;
31163;PMS5003;17796;49.296;-117.656;2023-05-19T01:28:28;62;50;
31163;PMS5003;17796;49.296;-117.656;2023-05-19T01:43:33;48;45;
31163;PMS5003;17796;49.296;-117.656;2023-05-19T01:58:43;41;37;
31163;PMS5003;17796;49.296;-117.656;2023-05-19T02:13:50;37;36;
31163;PMS5003;17796;49.296;-117.656;2023-05-19T02:28:57;39;31;
31163;PMS5003;17796;49.296;-117.656;2023-05-19T02:44:01;43;38;
31163;PMS5003;17796;49.296;-117.656;2023-05-19T02:59:04;45;39;
31163;PMS5003;17796;49.296;-117.656;2023-05-19T03:14:08;31;29;
31163;PMS5003;17796;49.296;-117.656;2023-05-19T03:29:12;26;24;
31163;PMS5003;17796;49.296;-117.656;2023-05-19T03:44:16;27;22;
31163;PMS5003;17796;49.296;-117.656;2023-05-19T03:59:19;20;16;
31163;PMS5003;17796;49.296;-117.656;2023-05-19T04:14:23;18;14;
31163;PMS5003;17796;49.296;-117.656;2023-05-19T04:29:27;20;16;
31163;PMS5003;17796;49.296;-117.656;2023-05-19T04:44:30;16;14;
31163;PMS5003;17796;49.296;-117.656;2023-05-19T04:59:34;22;21;
31163;PMS5003;17796;49.296;-117.656;2023-05-19T05:14:38;19;18;
31163;PMS5003;17796;49.296;-117.656;2023-05-19T05:29:42;20;17;
31163;PMS5003;17796;49.296;-117.656;2023-05-19T05:44:46;27;24;
31163;PMS5003;17796;49.296;-117.656;2023-05-19T05:59:49;24;22;
31163;PMS5003;17796;49.296;-117.656;2023-05-19T06:14:53;21;21;
31163;PMS5003;17796;49.296;-117.656;2023-05-19T06:29:56;23;20;
31163;PMS5003;17796;49.296;-117.656;2023-05-19T06:45:00;33;30;
31163;PMS5003;17796;49.296;-117.656;2023-05-19T07:00:05;32;31;
31163;PMS5003;17796;49.296;-117.656;2023-05-19T07:15:09;25;21;
31163;PMS5003;17796;49.296;-117.656;2023-05-19T07:30:13;32;29;
31163;PMS5003;17796;49.296;-117.656;2023-05-19T07:45:17;34;30;
31163;PMS5003;17796;49.296;-117.656;2023-05-19T08:00:22;26;22;
31163;PMS5003;17796;49.296;-117.656;2023-05-19T09:01:32;17;17;
31163;PMS5003;17796;49.296;-117.656;2023-05-19T09:16:39;33;24;
31163;PMS5003;17796;49.296;-117.656;2023-05-19T09:31:50;25;20;
31163;PMS5003;17796;49.296;-117.656;2023-05-19T09:46:56;33;25;
31163;PMS5003;17796;49.296;-117.656;2023-05-19T10:02:02;28;26;
31163;PMS5003;17796;49.296;-117.656;2023-05-19T10:17:10;28;22;
31163;PMS5003;17796;49.296;-117.656;2023-05-19T10:32:22;29;26;
31163;PMS5003;17796;49.296;-117.656;2023-05-19T10:47:30;37;30;
31163;PMS5003;17796;49.296;-117.656;2023-05-19T11:02:44;37;31;
31163;PMS5003;17796;49.296;-117.656;2023-05-19T11:17:52;58;57;
31163;PMS5003;17796;49.296;-117.656;2023-05-19T11:33:01;25;23;
31163;PMS5003;17796;49.296;-117.656;2023-05-19T11:48:13;35;28;
31163;PMS5003;17796;49.296;-117.656;2023-05-19T12:03:26;35;28;
31163;PMS5003;17796;49.296;-117.656;2023-05-19T12:18:38;34;30;
31163;PMS5003;17796;49.296;-117.656;2023-05-19T12:33:48;25;23;
31163;PMS5003;17796;49.296;-117.656;2023-05-19T12:49:01;34;30;
31163;PMS5003;17796;49.296;-117.656;2023-05-19T13:04:09;23;19;
31163;PMS5003;17796;49.296;-117.656;2023-05-19T13:19:20;34;30;
31163;PMS5003;17796;49.296;-117.656;2023-05-19T13:34:28;32;31;
31163;PMS5003;17796;49.296;-117.656;2023-05-19T13:49:36;37;35;
31163;PMS5003;17796;49.296;-117.656;2023-05-19T14:04:45;35;34;
31163;PMS5003;17796;49.296;-117.656;2023-05-19T14:19:53;31;22;
31163;PMS5003;17796;49.296;-117.656;2023-05-19T14:35:02;18;15;
31163;PMS5003;17796;49.296;-117.656;2023-05-19T14:50:10;22;20;
31163;PMS5003;17796;49.296;-117.656;2023-05-19T15:05:14;26;16;
31163;PMS5003;17796;49.296;-117.656;2023-05-19T15:20:18;20;18;
31163;PMS5003;17796;49.296;-117.656;2023-05-19T15:35:22;23;21;
31163;PMS5003;17796;49.296;-117.656;2023-05-19T15:50:26;19;18;
31163;PMS5003;17796;49.296;-117.656;2023-05-19T16:05:30;23;18;
31163;PMS5003;17796;49.296;-117.656;2023-05-19T16:20:33;29;26;
31163;PMS5003;17796;49.296;-117.656;2023-05-19T16:35:37;17;14;
31163;PMS5003;17796;49.296;-117.656;2023-05-19T16:50:41;15;14;
31163;PMS5003;17796;49.296;-117.656;2023-05-19T17:05:45;20;16;
31163;PMS5003;17796;49.296;-117.656;2023-05-19T17:20:49;22;19;
31163;PMS5003;17796;49.296;-117.656;2023-05-19T17:35:52;21;19;
31163;PMS5003;17796;49.296;-117.656;2023-05-19T17:50:56;25;20;
31163;PMS5003;17796;49.296;-117.656;2023-05-19T18:06:00;21;20;
31163;PMS5003;17796;49.296;-117.656;2023-05-19T18:21:04;23;21;
31163;PMS5003;17796;49.296;-117.656;2023-05-19T18:36:08;29;26;
31163;PMS5003;17796;49.296;-117.656;2023-05-19T18:51:12;29;23;
31163;PMS5003;17796;49.296;-117.656;2023-05-19T19:06:16;38;28;
31163;PMS5003;17796;49.296;-117.656;2023-05-19T19:21:19;29;26;
31163;PMS5003;17796;49.296;-117.656;2023-05-19T19:36:23;22;21;
31163;PMS5003;17796;49.296;-117.656;2023-05-19T19:51:28;28;23;
31163;PMS5003;17796;49.296;-117.656;2023-05-19T20:06:32;28;24;
31163;PMS5003;17796;49.296;-117.656;2023-05-19T20:21:36;36;25;
31163;PMS5003;17796;49.296;-117.656;2023-05-19T20:36:39;24;21;
31163;PMS5003;17796;49.296;-117.656;2023-05-19T20:51:43;30;25;
31163;PMS5003;17796;49.296;-117.656;2023-05-19T21:06:47;33;27;
31163;PMS5003;17796;49.296;-117.656;2023-05-19T21:21:51;34;29;
31163;PMS5003;17796;49.296;-117.656;2023-05-19T21:36:55;39;30;
31163;PMS5003;17796;49.296;-117.656;2023-05-19T21:51:58;32;28;
31163;PMS5003;17796;49.296;-117.656;2023-05-19T22:07:02;27;26;
31163;PMS5003;17796;49.296;-117.656;2023-05-19T22:22:06;41;34;
31163;PMS5003;17796;49.296;-117.656;2023-05-19T22:37:10;31;26;
31163;PMS5003;17796;49.296;-117.656;2023-05-19T22:52:13;36;31;
31163;PMS5003;17796;49.296;-117.656;2023-05-19T23:07:17;28;27;
31163;PMS5003;17796;49.296;-117.656;2023-05-19T23:22:21;35;28;
31163;PMS5003;17796;49.296;-117.656;2023-05-19T23:37:24;37;31;
31163;PMS5003;17796;49.296;-117.656;2023-05-19T23:52:28;31;30;
